sensor_id;sensor_type;location;lat;lon;timestamp;pressure;altitude;pressure_sealevel;temperature;humidity
56074;BME280;41950;55.840;37.442;2023-08-20T00:00:52;100126.72;;;21.20;84.24
56074;BME280;41950;55.840;37.442;2023-08-20T00:03:18;100123.97;;;21.23;84.39
56074;BME280;41950;55.840;37.442;2023-08-20T00:05:44;100109.28;;;21.18;84.75
56074;BME280;41950;55.840;37.442;2023-08-20T00:08:10;100067.28;;;20.97;84.80
56074;BME280;41950;55.840;37.442;2023-08-20T00:10:35;100109.88;;;21.23;85.09
56074;BME280;41950;55.840;37.442;2023-08-20T00:13:01;100077.22;;;21.08;85.48
56074;BME280;41950;55.840;37.442;2023-08-20T00:15:27;100062.75;;;20.99;85.65
56074;BME280;41950;55.840;37.442;2023-08-20T00:17:54;100066.50;;;20.95;86.31
56074;BME280;41950;55.840;37.442;2023-08-20T00:20:21;100093.88;;;21.10;86.91
56074;BME280;41950;55.840;37.442;2023-08-20T00:22:47;100090.75;;;21.02;87.30
56074;BME280;41950;55.840;37.442;2023-08-20T00:25:15;100058.06;;;20.89;87.66
56074;BME280;41950;55.840;37.442;2023-08-20T00:27:42;100042.13;;;20.75;88.16
56074;BME280;41950;55.840;37.442;2023-08-20T00:30:08;100083.94;;;20.98;88.81
56074;BME280;41950;55.840;37.442;2023-08-20T00:32:35;100033.75;;;20.66;89.32
56074;BME280;41950;55.840;37.442;2023-08-20T00:35:01;100075.59;;;20.90;89.60
56074;BME280;41950;55.840;37.442;2023-08-20T00:37:31;100062.75;;;20.84;89.95
56074;BME280;41950;55.840;37.442;2023-08-20T00:39:57;100044.16;;;20.70;90.36
56074;BME280;41950;55.840;37.442;2023-08-20T00:42:24;100059.97;;;20.70;91.04
56074;BME280;41950;55.840;37.442;2023-08-20T00:44:53;100057.34;;;20.70;91.77
56074;BME280;41950;55.840;37.442;2023-08-20T00:47:19;100040.56;;;20.55;91.48
56074;BME280;41950;55.840;37.442;2023-08-20T00:49:46;100070.44;;;20.71;91.95
56074;BME280;41950;55.840;37.442;2023-08-20T00:52:14;100060.38;;;20.62;92.15
56074;BME280;41950;55.840;37.442;2023-08-20T00:54:40;100058.59;;;20.62;92.10
56074;BME280;41950;55.840;37.442;2023-08-20T00:57:06;100040.56;;;20.55;91.81
56074;BME280;41950;55.840;37.442;2023-08-20T00:59:34;100039.31;;;20.45;92.44
56074;BME280;41950;55.840;37.442;2023-08-20T01:02:00;100072.56;;;20.64;92.66
56074;BME280;41950;55.840;37.442;2023-08-20T01:04:28;100063.63;;;20.67;92.36
56074;BME280;41950;55.840;37.442;2023-08-20T01:12:07;100061.16;;;20.64;92.90
56074;BME280;41950;55.840;37.442;2023-08-20T01:14:34;100038.44;;;20.61;93.33
56074;BME280;41950;55.840;37.442;2023-08-20T01:17:00;100045.69;;;20.74;93.12
56074;BME280;41950;55.840;37.442;2023-08-20T01:19:25;100051.56;;;20.79;92.68
56074;BME280;41950;55.840;37.442;2023-08-20T01:22:21;100045.34;;;20.80;92.31
56074;BME280;41950;55.840;37.442;2023-08-20T01:30:24;100059.78;;;20.90;91.89
56074;BME280;41950;55.840;37.442;2023-08-20T01:32:52;99983.41;;;20.55;91.43
56074;BME280;41950;55.840;37.442;2023-08-20T01:35:18;100050.59;;;20.97;91.41
56074;BME280;41950;55.840;37.442;2023-08-20T01:37:44;100062.06;;;20.96;91.07
56074;BME280;41950;55.840;37.442;2023-08-20T01:40:10;100048.28;;;20.91;91.92
56074;BME280;41950;55.840;37.442;2023-08-20T01:42:40;100020.84;;;20.78;92.02
56074;BME280;41950;55.840;37.442;2023-08-20T01:45:06;100061.75;;;21.02;92.76
56074;BME280;41950;55.840;37.442;2023-08-20T01:47:33;100030.16;;;20.85;93.32
56074;BME280;41950;55.840;37.442;2023-08-20T01:49:59;99980.03;;;20.52;93.95
56074;BME280;41950;55.840;37.442;2023-08-20T01:52:25;100045.38;;;20.95;94.40
56074;BME280;41950;55.840;37.442;2023-08-20T01:54:51;100055.44;;;20.89;95.43
56074;BME280;41950;55.840;37.442;2023-08-20T01:57:18;100018.28;;;20.60;95.85
56074;BME280;41950;55.840;37.442;2023-08-20T01:59:44;99999.00;;;20.43;96.80
56074;BME280;41950;55.840;37.442;2023-08-20T02:02:09;100045.84;;;20.71;97.17
56074;BME280;41950;55.840;37.442;2023-08-20T02:04:35;100021.16;;;20.56;97.83
56074;BME280;41950;55.840;37.442;2023-08-20T02:07:01;100063.97;;;20.77;97.82
56074;BME280;41950;55.840;37.442;2023-08-20T02:09:26;100055.13;;;20.78;97.49
56074;BME280;41950;55.840;37.442;2023-08-20T02:11:52;100020.22;;;20.57;97.75
56074;BME280;41950;55.840;37.442;2023-08-20T02:14:18;100048.41;;;20.72;97.12
56074;BME280;41950;55.840;37.442;2023-08-20T02:16:44;100052.66;;;20.75;97.46
56074;BME280;41950;55.840;37.442;2023-08-20T02:19:13;100027.97;;;20.60;97.17
56074;BME280;41950;55.840;37.442;2023-08-20T02:21:40;100024.41;;;20.61;97.14
56074;BME280;41950;55.840;37.442;2023-08-20T02:24:06;100059.34;;;20.82;96.07
56074;BME280;41950;55.840;37.442;2023-08-20T02:26:32;99988.44;;;20.43;96.29
56074;BME280;41950;55.840;37.442;2023-08-20T02:28:58;100011.69;;;20.52;96.60
56074;BME280;41950;55.840;37.442;2023-08-20T02:31:23;100033.06;;;20.63;96.42
56074;BME280;41950;55.840;37.442;2023-08-20T02:33:49;100006.56;;;20.49;96.82
56074;BME280;41950;55.840;37.442;2023-08-20T02:36:15;100037.00;;;20.72;96.76
56074;BME280;41950;55.840;37.442;2023-08-20T02:38:41;100012.91;;;20.62;95.69
56074;BME280;41950;55.840;37.442;2023-08-20T02:41:06;100051.44;;;20.82;94.55
56074;BME280;41950;55.840;37.442;2023-08-20T02:43:32;100001.69;;;20.58;94.29
56074;BME280;41950;55.840;37.442;2023-08-20T02:45:58;99993.53;;;20.63;94.04
56074;BME280;41950;55.840;37.442;2023-08-20T02:48:23;100045.13;;;21.00;93.52
56074;BME280;41950;55.840;37.442;2023-08-20T02:50:55;99989.53;;;20.72;92.71
56074;BME280;41950;55.840;37.442;2023-08-20T02:53:21;100043.38;;;21.16;91.18
56074;BME280;41950;55.840;37.442;2023-08-20T02:55:47;99971.66;;;20.77;90.63
56074;BME280;41950;55.840;37.442;2023-08-20T02:58:13;100023.78;;;21.05;89.95
56074;BME280;41950;55.840;37.442;2023-08-20T03:00:39;100082.50;;;21.25;90.39
56074;BME280;41950;55.840;37.442;2023-08-20T03:03:05;100089.00;;;21.18;91.47
56074;BME280;41950;55.840;37.442;2023-08-20T03:05:33;100083.91;;;21.15;91.75
56074;BME280;41950;55.840;37.442;2023-08-20T03:07:59;100069.31;;;20.92;91.47
56074;BME280;41950;55.840;37.442;2023-08-20T03:10:25;100097.75;;;21.03;92.08
56074;BME280;41950;55.840;37.442;2023-08-20T03:12:51;100026.63;;;20.68;92.11
56074;BME280;41950;55.840;37.442;2023-08-20T03:15:16;100079.78;;;20.94;91.63
56074;BME280;41950;55.840;37.442;2023-08-20T03:17:42;100062.53;;;20.71;91.67
56074;BME280;41950;55.840;37.442;2023-08-20T03:20:08;100100.13;;;20.92;91.80
56074;BME280;41950;55.840;37.442;2023-08-20T03:22:36;100092.38;;;20.89;92.56
56074;BME280;41950;55.840;37.442;2023-08-20T03:25:03;100088.88;;;20.88;93.13
56074;BME280;41950;55.840;37.442;2023-08-20T03:27:30;100091.44;;;20.90;93.50
56074;BME280;41950;55.840;37.442;2023-08-20T03:29:56;100066.03;;;20.72;92.72
56074;BME280;41950;55.840;37.442;2023-08-20T03:32:22;100074.44;;;20.78;92.71
56074;BME280;41950;55.840;37.442;2023-08-20T03:34:48;100056.97;;;20.60;93.40
56074;BME280;41950;55.840;37.442;2023-08-20T03:37:14;100071.63;;;20.65;94.24
56074;BME280;41950;55.840;37.442;2023-08-20T03:39:40;100070.31;;;20.57;95.25
56074;BME280;41950;55.840;37.442;2023-08-20T03:42:06;100087.94;;;20.56;95.64
56074;BME280;41950;55.840;37.442;2023-08-20T03:44:31;100086.59;;;20.48;94.71
56074;BME280;41950;55.840;37.442;2023-08-20T03:46:57;100099.25;;;20.58;94.96
56074;BME280;41950;55.840;37.442;2023-08-20T03:49:23;100074.28;;;20.31;95.66
56074;BME280;41950;55.840;37.442;2023-08-20T03:51:49;100057.44;;;20.33;95.63
56074;BME280;41950;55.840;37.442;2023-08-20T03:54:14;100019.53;;;20.19;95.77
56074;BME280;41950;55.840;37.442;2023-08-20T03:56:40;100061.00;;;20.50;96.29
56074;BME280;41950;55.840;37.442;2023-08-20T03:59:06;100055.56;;;20.53;96.35
56074;BME280;41950;55.840;37.442;2023-08-20T04:01:32;100020.94;;;20.43;96.13
56074;BME280;41950;55.840;37.442;2023-08-20T04:03:57;100012.94;;;20.45;96.34
56074;BME280;41950;55.840;37.442;2023-08-20T04:06:24;99970.06;;;20.24;97.11
56074;BME280;41950;55.840;37.442;2023-08-20T04:08:50;99958.22;;;20.15;97.55
56074;BME280;41950;55.840;37.442;2023-08-20T04:11:15;99951.50;;;20.10;98.42
56074;BME280;41950;55.840;37.442;2023-08-20T04:13:41;99948.53;;;20.16;98.84
56074;BME280;41950;55.840;37.442;2023-08-20T04:16:09;99922.00;;;20.03;99.21
56074;BME280;41950;55.840;37.442;2023-08-20T04:18:35;99976.66;;;20.32;99.33
56074;BME280;41950;55.840;37.442;2023-08-20T04:21:00;99969.78;;;20.30;99.28
56074;BME280;41950;55.840;37.442;2023-08-20T04:23:26;99977.44;;;20.34;98.58
56074;BME280;41950;55.840;37.442;2023-08-20T04:25:52;99938.41;;;20.08;98.70
56074;BME280;41950;55.840;37.442;2023-08-20T04:28:18;99984.78;;;20.45;99.20
56074;BME280;41950;55.840;37.442;2023-08-20T04:30:43;99994.41;;;20.46;98.46
56074;BME280;41950;55.840;37.442;2023-08-20T04:33:09;99935.63;;;20.11;97.71
56074;BME280;41950;55.840;37.442;2023-08-20T04:35:35;100003.25;;;20.45;97.36
56074;BME280;41950;55.840;37.442;2023-08-20T04:38:01;99978.19;;;20.36;97.62
56074;BME280;41950;55.840;37.442;2023-08-20T04:40:27;99967.66;;;20.36;97.07
56074;BME280;41950;55.840;37.442;2023-08-20T04:42:53;100009.44;;;20.61;96.73
56074;BME280;41950;55.840;37.442;2023-08-20T04:45:19;100007.19;;;20.54;96.22
56074;BME280;41950;55.840;37.442;2023-08-20T04:47:47;100004.50;;;20.55;96.31
56074;BME280;41950;55.840;37.442;2023-08-20T04:50:13;100018.97;;;20.64;96.72
56074;BME280;41950;55.840;37.442;2023-08-20T04:52:39;99964.94;;;20.38;96.73
56074;BME280;41950;55.840;37.442;2023-08-20T04:55:05;100000.66;;;20.61;96.74
56074;BME280;41950;55.840;37.442;2023-08-20T04:57:34;99986.41;;;20.48;96.66
56074;BME280;41950;55.840;37.442;2023-08-20T05:00:00;100003.22;;;20.62;96.48
56074;BME280;41950;55.840;37.442;2023-08-20T05:02:26;100001.25;;;20.66;96.86
56074;BME280;41950;55.840;37.442;2023-08-20T05:04:52;100003.00;;;20.83;96.99
56074;BME280;41950;55.840;37.442;2023-08-20T05:07:18;99964.69;;;20.60;96.29
56074;BME280;41950;55.840;37.442;2023-08-20T05:09:44;100004.38;;;20.90;96.50
56074;BME280;41950;55.840;37.442;2023-08-20T05:12:09;100001.47;;;20.94;95.43
56074;BME280;41950;55.840;37.442;2023-08-20T05:14:35;99980.72;;;20.88;95.33
56074;BME280;41950;55.840;37.442;2023-08-20T05:17:00;99982.25;;;20.92;94.95
56074;BME280;41950;55.840;37.442;2023-08-20T05:19:26;99981.13;;;20.96;94.49
56074;BME280;41950;55.840;37.442;2023-08-20T05:21:52;99953.72;;;20.99;93.96
56074;BME280;41950;55.840;37.442;2023-08-20T05:24:22;99943.00;;;21.02;93.44
56074;BME280;41950;55.840;37.442;2023-08-20T05:27:10;99980.56;;;21.39;93.43
56074;BME280;41950;55.840;37.442;2023-08-20T05:29:37;99952.59;;;21.19;93.60
56074;BME280;41950;55.840;37.442;2023-08-20T05:32:03;99950.22;;;21.14;93.28
56074;BME280;41950;55.840;37.442;2023-08-20T05:34:29;99955.34;;;21.17;92.82
56074;BME280;41950;55.840;37.442;2023-08-20T05:36:54;99967.59;;;21.18;92.89
56074;BME280;41950;55.840;37.442;2023-08-20T05:39:20;99973.81;;;21.17;92.28
56074;BME280;41950;55.840;37.442;2023-08-20T05:41:45;99972.13;;;21.16;92.28
56074;BME280;41950;55.840;37.442;2023-08-20T05:44:11;99971.19;;;21.17;92.12
56074;BME280;41950;55.840;37.442;2023-08-20T05:46:37;99960.63;;;21.17;91.98
56074;BME280;41950;55.840;37.442;2023-08-20T05:49:02;99927.41;;;20.97;90.64
56074;BME280;41950;55.840;37.442;2023-08-20T05:51:28;99944.59;;;21.05;90.52
56074;BME280;41950;55.840;37.442;2023-08-20T05:53:54;99955.16;;;21.20;90.16
56074;BME280;41950;55.840;37.442;2023-08-20T05:56:19;99968.81;;;21.28;89.54
56074;BME280;41950;55.840;37.442;2023-08-20T05:58:45;99973.22;;;21.44;88.90
56074;BME280;41950;55.840;37.442;2023-08-20T06:01:11;99945.97;;;21.43;88.51
56074;BME280;41950;55.840;37.442;2023-08-20T06:03:36;99939.25;;;21.38;87.19
56074;BME280;41950;55.840;37.442;2023-08-20T06:06:02;99971.91;;;21.67;87.72
56074;BME280;41950;55.840;37.442;2023-08-20T06:08:28;99963.25;;;21.79;87.47
56074;BME280;41950;55.840;37.442;2023-08-20T06:10:54;99966.25;;;21.87;86.59
56074;BME280;41950;55.840;37.442;2023-08-20T06:13:19;99955.69;;;21.87;85.75
56074;BME280;41950;55.840;37.442;2023-08-20T06:15:45;99957.41;;;21.88;85.35
56074;BME280;41950;55.840;37.442;2023-08-20T06:18:11;99920.50;;;21.72;85.23
56074;BME280;41950;55.840;37.442;2023-08-20T06:20:36;99959.59;;;21.96;84.61
56074;BME280;41950;55.840;37.442;2023-08-20T06:23:02;99932.38;;;21.79;84.30
56074;BME280;41950;55.840;37.442;2023-08-20T06:25:28;99917.09;;;21.84;85.03
56074;BME280;41950;55.840;37.442;2023-08-20T06:27:54;99951.72;;;22.10;84.55
56074;BME280;41950;55.840;37.442;2023-08-20T06:30:20;99948.69;;;22.16;83.05
56074;BME280;41950;55.840;37.442;2023-08-20T06:32:45;99941.63;;;22.16;83.58
56074;BME280;41950;55.840;37.442;2023-08-20T06:35:11;99908.88;;;22.05;83.05
56074;BME280;41950;55.840;37.442;2023-08-20T06:37:38;99924.25;;;22.12;83.14
56074;BME280;41950;55.840;37.442;2023-08-20T06:40:06;99932.38;;;22.24;82.53
56074;BME280;41950;55.840;37.442;2023-08-20T06:42:32;99949.66;;;22.29;81.95
56074;BME280;41950;55.840;37.442;2023-08-20T06:44:57;99919.63;;;22.16;82.19
56074;BME280;41950;55.840;37.442;2023-08-20T06:47:23;99939.19;;;22.28;82.71
56074;BME280;41950;55.840;37.442;2023-08-20T06:49:50;99915.28;;;22.29;82.06
56074;BME280;41950;55.840;37.442;2023-08-20T06:52:15;99916.03;;;22.31;82.54
56074;BME280;41950;55.840;37.442;2023-08-20T06:54:41;99920.00;;;22.38;82.62
56074;BME280;41950;55.840;37.442;2023-08-20T06:57:07;99891.69;;;22.26;81.92
56074;BME280;41950;55.840;37.442;2023-08-20T06:59:32;99915.84;;;22.48;81.34
56074;BME280;41950;55.840;37.442;2023-08-20T07:01:58;99922.66;;;22.52;80.23
56074;BME280;41950;55.840;37.442;2023-08-20T07:04:24;99918.75;;;22.44;80.24
56074;BME280;41950;55.840;37.442;2023-08-20T07:06:51;99862.69;;;22.10;79.32
56074;BME280;41950;55.840;37.442;2023-08-20T07:09:16;99911.97;;;22.40;79.74
56074;BME280;41950;55.840;37.442;2023-08-20T07:11:42;99924.34;;;22.54;80.10
56074;BME280;41950;55.840;37.442;2023-08-20T07:14:07;99886.19;;;22.43;78.75
56074;BME280;41950;55.840;37.442;2023-08-20T07:16:33;99893.25;;;22.57;78.66
56074;BME280;41950;55.840;37.442;2023-08-20T07:18:59;99894.09;;;22.58;78.48
56074;BME280;41950;55.840;37.442;2023-08-20T07:21:24;99833.81;;;22.22;78.85
56074;BME280;41950;55.840;37.442;2023-08-20T07:23:50;99919.22;;;22.79;78.21
56074;BME280;41950;55.840;37.442;2023-08-20T07:26:16;99889.91;;;22.68;78.65
56074;BME280;41950;55.840;37.442;2023-08-20T07:28:42;99896.31;;;22.92;78.67
56074;BME280;41950;55.840;37.442;2023-08-20T07:31:28;99873.69;;;22.74;78.42
56074;BME280;41950;55.840;37.442;2023-08-20T07:33:54;99907.22;;;22.88;79.12
56074;BME280;41950;55.840;37.442;2023-08-20T07:36:23;99902.31;;;22.81;79.11
56074;BME280;41950;55.840;37.442;2023-08-20T07:38:51;99879.88;;;22.87;80.02
56074;BME280;41950;55.840;37.442;2023-08-20T07:41:17;99899.22;;;23.02;79.92
56074;BME280;41950;55.840;37.442;2023-08-20T07:43:45;99901.56;;;23.06;80.04
56074;BME280;41950;55.840;37.442;2023-08-20T07:46:11;99886.28;;;22.97;78.29
56074;BME280;41950;55.840;37.442;2023-08-20T07:48:36;99852.09;;;22.80;78.95
56074;BME280;41950;55.840;37.442;2023-08-20T07:51:02;99898.66;;;23.24;78.82
56074;BME280;41950;55.840;37.442;2023-08-20T07:53:29;99898.28;;;23.30;77.55
56074;BME280;41950;55.840;37.442;2023-08-20T07:55:55;99890.88;;;23.35;76.51
56074;BME280;41950;55.840;37.442;2023-08-20T07:58:21;99892.19;;;23.28;76.47
56074;BME280;41950;55.840;37.442;2023-08-20T08:00:47;99864.72;;;23.03;77.03
56074;BME280;41950;55.840;37.442;2023-08-20T08:03:13;99859.31;;;23.05;76.80
56074;BME280;41950;55.840;37.442;2023-08-20T08:05:41;99881.97;;;23.36;76.89
56074;BME280;41950;55.840;37.442;2023-08-20T08:08:07;99856.28;;;23.24;76.17
56074;BME280;41950;55.840;37.442;2023-08-20T08:10:33;99888.13;;;23.49;75.55
56074;BME280;41950;55.840;37.442;2023-08-20T08:12:59;99883.47;;;23.53;75.54
56074;BME280;41950;55.840;37.442;2023-08-20T08:15:24;99881.84;;;23.64;74.83
56074;BME280;41950;55.840;37.442;2023-08-20T08:17:50;99884.59;;;23.63;75.51
56074;BME280;41950;55.840;37.442;2023-08-20T08:20:16;99878.66;;;23.72;74.76
56074;BME280;41950;55.840;37.442;2023-08-20T08:22:43;99884.81;;;23.72;74.69
56074;BME280;41950;55.840;37.442;2023-08-20T08:25:08;99868.59;;;23.64;74.44
56074;BME280;41950;55.840;37.442;2023-08-20T08:27:34;99867.00;;;23.74;74.25
56074;BME280;41950;55.840;37.442;2023-08-20T08:30:00;99858.00;;;23.90;74.00
56074;BME280;41950;55.840;37.442;2023-08-20T08:32:26;99828.84;;;23.90;73.62
56074;BME280;41950;55.840;37.442;2023-08-20T08:34:51;99831.69;;;23.99;72.26
56074;BME280;41950;55.840;37.442;2023-08-20T08:37:17;99831.97;;;24.08;71.48
56074;BME280;41950;55.840;37.442;2023-08-20T08:39:43;99850.88;;;24.28;70.74
56074;BME280;41950;55.840;37.442;2023-08-20T08:42:10;99819.44;;;24.22;69.34
56074;BME280;41950;55.840;37.442;2023-08-20T08:44:37;99819.16;;;24.14;68.38
56074;BME280;41950;55.840;37.442;2023-08-20T08:47:04;99836.31;;;24.21;69.12
56074;BME280;41950;55.840;37.442;2023-08-20T08:49:33;99812.78;;;24.17;68.98
56074;BME280;41950;55.840;37.442;2023-08-20T08:51:59;99844.25;;;24.47;69.27
56074;BME280;41950;55.840;37.442;2023-08-20T08:54:26;99824.50;;;24.51;67.72
56074;BME280;41950;55.840;37.442;2023-08-20T08:56:52;99842.06;;;24.64;68.00
56074;BME280;41950;55.840;37.442;2023-08-20T08:59:19;99791.09;;;24.35;67.15
56074;BME280;41950;55.840;37.442;2023-08-20T09:01:45;99812.88;;;24.41;66.66
56074;BME280;41950;55.840;37.442;2023-08-20T09:04:10;99839.47;;;24.52;67.45
56074;BME280;41950;55.840;37.442;2023-08-20T09:09:12;99852.63;;;24.77;66.62
56074;BME280;41950;55.840;37.442;2023-08-20T09:11:40;99861.69;;;24.75;67.54
56074;BME280;41950;55.840;37.442;2023-08-20T09:14:06;99868.31;;;24.93;66.96
56074;BME280;41950;55.840;37.442;2023-08-20T09:16:31;99863.69;;;25.08;65.99
56074;BME280;41950;55.840;37.442;2023-08-20T09:19:00;99846.09;;;25.18;65.87
56074;BME280;41950;55.840;37.442;2023-08-20T09:21:29;99827.94;;;25.36;65.69
56074;BME280;41950;55.840;37.442;2023-08-20T09:23:56;99831.91;;;25.41;64.91
56074;BME280;41950;55.840;37.442;2023-08-20T09:26:23;99819.56;;;25.29;65.04
56074;BME280;41950;55.840;37.442;2023-08-20T09:28:48;99832.16;;;25.38;64.30
56074;BME280;41950;55.840;37.442;2023-08-20T09:31:15;99819.88;;;25.60;64.03
56074;BME280;41950;55.840;37.442;2023-08-20T09:36:16;99775.59;;;25.82;63.95
56074;BME280;41950;55.840;37.442;2023-08-20T09:38:42;99802.88;;;25.73;62.74
56074;BME280;41950;55.840;37.442;2023-08-20T09:41:08;99805.66;;;25.72;62.58
56074;BME280;41950;55.840;37.442;2023-08-20T09:43:38;99734.00;;;25.48;62.42
56074;BME280;41950;55.840;37.442;2023-08-20T09:46:05;99810.75;;;26.08;62.21
56074;BME280;41950;55.840;37.442;2023-08-20T14:58:01;99636.81;;;22.02;91.77
56074;BME280;41950;55.840;37.442;2023-08-20T15:00:26;99623.47;;;22.03;93.67
56074;BME280;41950;55.840;37.442;2023-08-20T15:02:52;99653.19;;;22.21;94.03
56074;BME280;41950;55.840;37.442;2023-08-20T15:05:18;99659.13;;;22.25;94.88
56074;BME280;41950;55.840;37.442;2023-08-20T15:07:43;99672.72;;;22.18;96.39
56074;BME280;41950;55.840;37.442;2023-08-20T15:10:10;99687.00;;;22.16;96.35
56074;BME280;41950;55.840;37.442;2023-08-20T15:12:36;99708.16;;;22.02;94.08
56074;BME280;41950;55.840;37.442;2023-08-20T15:15:05;99703.66;;;21.61;96.45
56074;BME280;41950;55.840;37.442;2023-08-20T15:17:32;99685.66;;;21.11;98.71
56074;BME280;41950;55.840;37.442;2023-08-20T15:19:58;99666.56;;;20.91;100.00
56074;BME280;41950;55.840;37.442;2023-08-20T15:22:24;99662.34;;;21.03;100.00
56074;BME280;41950;55.840;37.442;2023-08-20T15:24:50;99688.31;;;21.25;100.00
56074;BME280;41950;55.840;37.442;2023-08-20T15:27:18;99662.38;;;21.17;100.00
56074;BME280;41950;55.840;37.442;2023-08-20T15:29:44;99656.63;;;21.25;99.62
56074;BME280;41950;55.840;37.442;2023-08-20T15:32:11;99676.81;;;21.54;99.37
56074;BME280;41950;55.840;37.442;2023-08-20T15:34:37;99636.28;;;21.27;98.82
56074;BME280;41950;55.840;37.442;2023-08-20T15:37:03;99651.28;;;21.41;97.51
56074;BME280;41950;55.840;37.442;2023-08-20T15:39:32;99687.38;;;21.69;96.39
56074;BME280;41950;55.840;37.442;2023-08-20T15:41:58;99697.09;;;21.68;96.54
56074;BME280;41950;55.840;37.442;2023-08-20T15:44:24;99658.91;;;21.45;96.01
56074;BME280;41950;55.840;37.442;2023-08-20T15:46:50;99701.13;;;21.59;94.80
56074;BME280;41950;55.840;37.442;2023-08-20T15:49:16;99647.94;;;21.23;95.12
56074;BME280;41950;55.840;37.442;2023-08-20T15:51:41;99664.06;;;21.33;94.86
56074;BME280;41950;55.840;37.442;2023-08-20T15:54:08;99697.56;;;21.46;95.03
56074;BME280;41950;55.840;37.442;2023-08-20T15:56:37;99660.84;;;21.13;95.70
56074;BME280;41950;55.840;37.442;2023-08-20T15:59:04;99705.00;;;21.25;96.07
56074;BME280;41950;55.840;37.442;2023-08-20T16:01:29;99708.75;;;21.21;96.22
56074;BME280;41950;55.840;37.442;2023-08-20T16:03:55;99539.53;;;20.11;96.48
56074;BME280;41950;55.840;37.442;2023-08-20T16:06:21;99707.84;;;21.07;96.23
56074;BME280;41950;55.840;37.442;2023-08-20T16:08:47;99615.56;;;20.32;95.19
56074;BME280;41950;55.840;37.442;2023-08-20T16:11:13;99586.59;;;20.17;94.95
56074;BME280;41950;55.840;37.442;2023-08-20T16:13:39;99693.19;;;20.73;95.15
56074;BME280;41950;55.840;37.442;2023-08-20T16:16:04;99671.06;;;20.45;93.97
56074;BME280;41950;55.840;37.442;2023-08-20T16:18:30;99718.03;;;20.68;93.93
56074;BME280;41950;55.840;37.442;2023-08-20T16:20:56;99713.91;;;20.64;94.08
56074;BME280;41950;55.840;37.442;2023-08-20T16:23:21;99711.72;;;20.57;94.25
56074;BME280;41950;55.840;37.442;2023-08-20T16:25:47;99694.97;;;20.42;94.58
56074;BME280;41950;55.840;37.442;2023-08-20T16:28:12;99699.47;;;20.40;95.27
56074;BME280;41950;55.840;37.442;2023-08-20T16:30:40;99718.09;;;20.37;95.12
56074;BME280;41950;55.840;37.442;2023-08-20T16:33:09;99717.31;;;20.35;95.40
56074;BME280;41950;55.840;37.442;2023-08-20T16:35:36;99716.75;;;20.30;95.70
56074;BME280;41950;55.840;37.442;2023-08-20T16:38:02;99656.00;;;19.86;96.04
56074;BME280;41950;55.840;37.442;2023-08-20T16:40:28;99720.91;;;20.18;96.57
56074;BME280;41950;55.840;37.442;2023-08-20T16:42:54;99733.81;;;20.23;97.28
56074;BME280;41950;55.840;37.442;2023-08-20T16:45:20;99728.53;;;20.23;96.34
56074;BME280;41950;55.840;37.442;2023-08-20T16:47:46;99730.31;;;20.22;95.91
56074;BME280;41950;55.840;37.442;2023-08-20T16:50:13;99738.50;;;20.18;95.00
56074;BME280;41950;55.840;37.442;2023-08-20T16:52:39;99729.25;;;20.11;95.12
56074;BME280;41950;55.840;37.442;2023-08-20T16:55:05;99728.66;;;20.05;94.36
56074;BME280;41950;55.840;37.442;2023-08-20T16:57:31;99728.81;;;20.02;94.33
56074;BME280;41950;55.840;37.442;2023-08-20T16:59:57;99704.59;;;19.80;94.71
56074;BME280;41950;55.840;37.442;2023-08-20T17:02:22;99734.75;;;19.90;94.58
56074;BME280;41950;55.840;37.442;2023-08-20T17:04:48;99716.41;;;19.73;94.11
56074;BME280;41950;55.840;37.442;2023-08-20T17:07:15;99760.06;;;19.93;94.27
56074;BME280;41950;55.840;37.442;2023-08-20T17:09:41;99755.72;;;19.92;94.73
56074;BME280;41950;55.840;37.442;2023-08-20T17:12:06;99769.00;;;19.90;94.77
56074;BME280;41950;55.840;37.442;2023-08-20T17:14:32;99767.28;;;19.89;94.79
56074;BME280;41950;55.840;37.442;2023-08-20T17:16:58;99737.69;;;19.68;93.71
56074;BME280;41950;55.840;37.442;2023-08-20T17:19:24;99759.44;;;19.72;93.82
56074;BME280;41950;55.840;37.442;2023-08-20T17:21:50;99769.06;;;19.73;93.85
56074;BME280;41950;55.840;37.442;2023-08-20T17:24:17;99744.47;;;19.57;94.02
56074;BME280;41950;55.840;37.442;2023-08-20T17:26:42;99761.97;;;19.58;93.37
56074;BME280;41950;55.840;37.442;2023-08-20T17:29:08;99772.41;;;19.59;92.88
56074;BME280;41950;55.840;37.442;2023-08-20T17:31:35;99768.47;;;19.51;91.60
56074;BME280;41950;55.840;37.442;2023-08-20T17:34:02;99782.19;;;19.57;91.85
56074;BME280;41950;55.840;37.442;2023-08-20T17:36:32;99759.31;;;19.40;90.38
56074;BME280;41950;55.840;37.442;2023-08-20T17:38:58;99770.63;;;19.42;90.11
56074;BME280;41950;55.840;37.442;2023-08-20T17:41:24;99717.59;;;19.00;90.25
56074;BME280;41950;55.840;37.442;2023-08-20T17:43:50;99754.72;;;19.11;90.88
56074;BME280;41950;55.840;37.442;2023-08-20T17:46:16;99783.03;;;19.23;91.41
56074;BME280;41950;55.840;37.442;2023-08-20T17:48:41;99774.75;;;19.13;89.68
56074;BME280;41950;55.840;37.442;2023-08-20T17:51:07;99742.72;;;18.88;90.23
56074;BME280;41950;55.840;37.442;2023-08-20T17:53:33;99789.53;;;19.16;90.17
56074;BME280;41950;55.840;37.442;2023-08-20T17:55:59;99782.88;;;19.09;89.74
56074;BME280;41950;55.840;37.442;2023-08-20T17:58:25;99784.22;;;19.00;89.24
56074;BME280;41950;55.840;37.442;2023-08-20T18:00:50;99768.63;;;18.78;86.51
56074;BME280;41950;55.840;37.442;2023-08-20T18:03:16;99772.72;;;18.67;86.72
56074;BME280;41950;55.840;37.442;2023-08-20T18:05:42;99775.75;;;18.58;85.65
56074;BME280;41950;55.840;37.442;2023-08-20T18:08:09;99747.09;;;18.34;84.86